CGH weather

Congonhas Airport
São Paulo, São Paulo, Brazil

Public forecast

Using degrees Celsius for public forecast. Weather courtesy of forecast.io.

METAR (pilot weather report)

Retrieved 2018/05/24 14:00 UTC (55 minutes ago):

SBSP 241400Z 09006KT CAVOK 18/12 Q1027

TAF (pilot weather forecast)

Retrieved 2018/05/24 12:00 UTC (3 hours ago):

TAF SBSP 240900Z 2412/2512 10003KT CAVOK TX23/2417Z TN13/2509Z BECMG 2413/2415 14005KT BECMG 2418/2420 BKN012 BECMG 2422/2424 CAVOK BECMG 2504/2506 6000 BKN010 PROB30 2506/2511 4000 BR BKN005 RMK PGH